Scan Viking — LHWJ — position and weather

sailwx.info

Track history (hours):
 
Tides and Currents Weather Stations Pressure Air Temp Water Temp Dewpoint Dewpoint Depression Visibility Wind Speed Wind Dir Waves Ship Positions

Scan Viking

Last reported at 2017-Oct-02 05:53 UTC. Time now 2017-Oct-17 01:10 UTC.
Position N 38°06' W 000°33'.
Warning: this ship's position is 14 days out of date.

Length 36 m; draft 3.9 m.

Type: Ship. MMSI: 257060400.

Date/timePositionNaut miles runAvg speedWind from/ knotsBaromVisibWave heightAir tempDewpointWater temp
2017-Oct-02 05:53N 38°06' W 000°33'3 8.5
2017-Oct-02 05:30N 38°03' W 000°33'4 8.6
2017-Oct-02 05:00N 37°59' W 000°33'4 8.6
2017-Oct-02 04:30N 37°54' W 000°32'4 8.6
2017-Oct-02 04:00N 37°50' W 000°32'4 8.7
2017-Oct-02 03:30N 37°46' W 000°31'4 8.7
2017-Oct-02 03:00N 37°42' W 000°31'4 8.5
2017-Oct-02 02:30N 37°38' W 000°29'4 8.5
2017-Oct-02 02:00N 37°34' W 000°31'9 8.4
2017-Oct-02 00:57N 37°28' W 000°40'4 8.7
2017-Oct-02 00:29N 37°25' W 000°43'4 8.6
2017-Oct-02 00:00N 37°22' W 000°47'  
2017-Sep-25 11:47N 34°06' W 011°54'2 7.3
2017-Sep-25 11:30N 34°07' W 011°52'27 7.6
2017-Sep-25 08:00N 34°16' W 011°21'  
Track history (hours):
 
Tides and Currents Weather Stations Pressure Air Temp Water Temp Dewpoint Dewpoint Depression Visibility Wind Speed Wind Dir Waves Ship Positions

Scan Viking

Last reported at 2017-Oct-02 05:53 UTC. Time now 2017-Oct-17 01:10 UTC.
Position N 38°06' W 000°33'.
Warning: this ship's position is 14 days out of date.

Length 36 m; draft 3.9 m.

Type: Ship. MMSI: 257060400.

Date/timePositionNaut miles runAvg speedWind from/ knotsBaromVisibWave heightAir tempDewpointWater temp
2017-Oct-02 05:53N 38°06' W 000°33'3 8.5
2017-Oct-02 05:30N 38°03' W 000°33'4 8.6
2017-Oct-02 05:00N 37°59' W 000°33'4 8.6
2017-Oct-02 04:30N 37°54' W 000°32'4 8.6
2017-Oct-02 04:00N 37°50' W 000°32'4 8.7
2017-Oct-02 03:30N 37°46' W 000°31'4 8.7
2017-Oct-02 03:00N 37°42' W 000°31'4 8.5
2017-Oct-02 02:30N 37°38' W 000°29'4 8.5
2017-Oct-02 02:00N 37°34' W 000°31'9 8.4
2017-Oct-02 00:57N 37°28' W 000°40'4 8.7
2017-Oct-02 00:29N 37°25' W 000°43'4 8.6
2017-Oct-02 00:00N 37°22' W 000°47'  
2017-Sep-25 11:47N 34°06' W 011°54'2 7.3
2017-Sep-25 11:30N 34°07' W 011°52'27 7.6
2017-Sep-25 08:00N 34°16' W 011°21'  

Dump ship's entire track history